Flight Track Log - Related Links

Times and Time Zones

All times are in EDT time to prevent confusion due to time zone crossing. See the JZA7819 flight status page for this flight to view local times or setup timezone preferences in your user account.

Time Position Orientation Groundspeed Altitude Reporting Facility
EDT Latitude Longitude Course Direction KTS MPH feet Rate Location/Type
Mon 10:56:18 PM 43.6667 -79.6167 360° North 20 23 500  Level Toronto Center
Mon 10:57:18 PM 43.6667 -79.6167 360° North 10 12 500  Level Toronto Center
Mon 10:58:55 PM 43.6667 -79.6167 144° Southeast 40 46 500  Level Toronto Center
Mon 11:00:00 PM 43.7264 -79.6316 350° North  Level FlightAware Approximate
Mon 11:00:29 PM 43.6667 -79.5833 350° North 10 12 500  Level Toronto Center
Mon 11:01:29 PM 43.6500 -79.6167 235° Southwest 20 23 500  Level Toronto Center
Mon 11:02:29 PM 43.6500 -79.6167 235° Southwest 10 12 500 126 Level Toronto Center
Mon 11:05:00 PM 43.7524 -79.6553 346° North  Level Estimated
Mon 11:07:49 PM 43.6667 -79.5833 23° Northeast 120 138 1,300  Level Toronto Center
Mon 11:08:49 PM 43.7167 -79.5833 360° North 160 184 2,400 1,150 Climbing Toronto Center
Mon 11:09:49 PM 43.7667 -79.6167 334° Northwest 160 184 3,600 850 Climbing Toronto Center
Mon 11:10:49 PM 43.8000 -79.6167 360° North 170 196 4,100 700 Climbing Toronto Center
Mon 11:11:49 PM 43.8500 -79.6333 346° North 190 219 5,000 550 Climbing Toronto Center
Mon 11:12:00 PM 44.2249 -79.8353 350° North  Level Estimated
Mon 11:12:49 PM 43.9167 -79.6333 360° North 210 242 5,200  Level Toronto Center
Mon 11:13:00 PM 44.2892 -79.7967 23° Northeast  Level FlightAware Approximate
Mon 11:13:49 PM 43.9833 -79.6500 350° North 220 253 6,000  Level Toronto Center
Mon 11:14:49 PM 44.0333 -79.6833 334° Northwest 210 242 6,900 800 Climbing Toronto Center
Mon 11:15:49 PM 44.0833 -79.7000 347° North 210 242 7,600 800 Climbing Toronto Center
Mon 11:16:49 PM 44.1500 -79.7333 340° North 210 242 8,500 833 Climbing Toronto Center
Mon 11:18:00 PM 44.2127 -79.7871 328° Northwest  Level FlightAware Approximate
Mon 11:18:49 PM 44.2667 -79.7667 328° Northwest 210 242 10,100  Level Toronto Center
Mon 11:19:49 PM 44.3167 -79.8000 335° Northwest 210 242 10,800 700 Climbing Toronto Center
Mon 11:20:49 PM 44.3667 -79.8167 347° North 210 242 11,500 700 Climbing Toronto Center
Mon 11:21:49 PM 44.4333 -79.8500 340° North 220 253 12,200 750 Climbing Toronto Center
Mon 11:22:49 PM 44.4833 -79.8667 347° North 220 253 13,000 800 Climbing Toronto Center
Mon 11:23:49 PM 44.5500 -79.8833 350° North 210 242 13,800 500 Climbing Toronto Center
Mon 11:24:49 PM 44.6000 -79.9167 335° Northwest 220 253 14,000 100 Climbing Toronto Center
Mon 11:25:49 PM 44.6667 -79.9333 350° North 240 276 14,000  Level Toronto Center
Mon 11:26:49 PM 44.7333 -79.9667 340° North 260 299 14,000  Level Toronto Center
Mon 11:27:49 PM 44.8000 -79.9833 350° North 260 299 14,000  Level Toronto Center
Mon 11:28:49 PM 44.8833 -80.0333 337° Northwest 260 299 14,000  Level Toronto Center
Mon 11:29:49 PM 44.9500 -80.0500 350° North 260 299 14,000  Level Toronto Center
Mon 11:30:49 PM 45.0167 -80.0833 341° North 260 299 14,000  Level Toronto Center
Mon 11:31:49 PM 45.0833 -80.1333 332° Northwest 260 299 14,000  Level Toronto Center
Mon 11:32:49 PM 45.1500 -80.1833 332° Northwest 260 299 14,000  Level Toronto Center
Mon 11:33:49 PM 45.2167 -80.2000 350° North 260 299 14,000  Level Toronto Center
Mon 11:34:49 PM 45.2833 -80.2500 332° Northwest 260 299 14,000  Level Toronto Center
Mon 11:35:49 PM 45.3500 -80.2667 350° North 260 299 14,000  Level Toronto Center
Mon 11:36:49 PM 45.4167 -80.3167 332° Northwest 260 299 14,000  Level Toronto Center
Mon 11:37:49 PM 45.5000 -80.3500 344° North 260 299 14,000  Level Toronto Center
Mon 11:38:49 PM 45.5667 -80.4000 332° Northwest 260 299 14,000  Level Toronto Center
Mon 11:39:49 PM 45.6167 -80.4167 347° North 260 299 14,000  Level Toronto Center
Mon 11:40:49 PM 45.7000 -80.4667 337° Northwest 260 299 14,000  Level Toronto Center
Mon 11:41:49 PM 45.7667 -80.5167 332° Northwest 260 299 14,000  Level Toronto Center
Mon 11:42:49 PM 45.8333 -80.5333 350° North 260 299 14,000 -500 Level Toronto Center
Mon 11:43:49 PM 45.9000 -80.5833 332° Northwest 270 311 13,000 -1,050 Descending Toronto Center
Mon 11:44:49 PM 45.9833 -80.6333 337° Northwest 290 334 11,900 -1,050 Descending Toronto Center
Mon 11:45:49 PM 46.0500 -80.6667 341° North 290 334 10,900 -1,050 Descending Toronto Center
Mon 11:46:49 PM 46.1167 -80.7167 333° Northwest 280 322 9,800 -1,100 Descending Toronto Center
Mon 11:47:49 PM 46.1833 -80.7667 333° Northwest 270 311 8,700 -1,000 Descending Toronto Center
Mon 11:48:49 PM 46.2500 -80.7833 350° North 260 299 7,800 -950 Descending Toronto Center
Mon 11:49:49 PM 46.3333 -80.8333 337° Northwest 260 299 6,800 -1,000 Descending Toronto Center
Mon 11:50:49 PM 46.3833 -80.8667 335° Northwest 260 299 5,800 -1,000 Descending Toronto Center
Mon 11:51:49 PM 46.4500 -80.8833 350° North 240 276 4,800 -1,050 Descending Toronto Center
Mon 11:52:49 PM 46.5000 -80.8667 13° North 190 219 3,700 -1,100 Descending Toronto Center

Login

Don't have an account? Register now (free) for customized features, flight alerts, and more!